createdAt,value
2022-10-20T00:00:43.959Z,12.40
2022-10-20T00:03:34.830Z,15.70
2022-10-20T00:06:11.666Z,13.90
2022-10-20T00:08:44.771Z,12.80
2022-10-20T00:11:19.329Z,14.00
2022-10-20T00:13:52.899Z,11.80
2022-10-20T00:16:26.022Z,12.00
2022-10-20T00:18:57.519Z,13.20
2022-10-20T00:21:30.837Z,11.50
2022-10-20T00:24:04.866Z,12.00
2022-10-20T00:26:36.345Z,13.90
2022-10-20T00:29:07.800Z,13.40
2022-10-20T00:31:39.907Z,10.20
2022-10-20T00:34:11.473Z,10.20
2022-10-20T00:36:45.333Z,12.10
2022-10-20T00:39:20.259Z,13.70
2022-10-20T00:41:51.669Z,12.50
2022-10-20T00:44:52.085Z,10.80
2022-10-20T00:47:34.696Z,11.40
2022-10-20T00:50:12.046Z,16.20
2022-10-20T00:52:46.004Z,14.00
2022-10-20T00:55:22.389Z,12.40
2022-10-20T00:57:56.939Z,11.30
2022-10-20T01:00:29.222Z,12.50
2022-10-20T01:03:02.796Z,11.90
2022-10-20T01:08:04.219Z,14.80
2022-10-20T01:10:41.913Z,16.00
2022-10-20T01:13:27.266Z,15.10
2022-10-20T01:16:04.906Z,13.10
2022-10-20T01:18:44.510Z,12.70
2022-10-20T01:21:37.461Z,14.80
2022-10-20T01:24:50.866Z,14.40
2022-10-20T01:27:33.749Z,12.90
2022-10-20T01:30:15.503Z,12.10
2022-10-20T01:32:57.583Z,11.20
2022-10-20T01:35:42.009Z,10.30
2022-10-20T01:38:23.704Z,11.90
2022-10-20T01:41:01.781Z,12.00
2022-10-20T01:43:37.910Z,17.40
2022-10-20T01:46:12.678Z,19.90
2022-10-20T01:48:45.020Z,22.00
2022-10-20T01:51:16.457Z,21.70
2022-10-20T01:53:47.920Z,26.10
2022-10-20T01:56:27.896Z,31.00
2022-10-20T01:59:15.993Z,25.80
2022-10-20T02:02:06.940Z,32.40
2022-10-20T02:04:52.815Z,35.40
2022-10-20T02:07:29.609Z,32.00
2022-10-20T02:10:06.250Z,35.00
2022-10-20T02:12:45.374Z,30.40
2022-10-20T02:15:23.971Z,29.90
2022-10-20T02:18:00.510Z,33.40
2022-10-20T02:20:33.140Z,32.50
2022-10-20T02:23:07.413Z,26.20
2022-10-20T02:25:42.506Z,26.10
2022-10-20T02:28:16.887Z,25.50
2022-10-20T02:30:49.270Z,25.60
2022-10-20T02:33:23.880Z,24.90
2022-10-20T02:36:01.447Z,24.80
2022-10-20T02:38:33.051Z,26.40
2022-10-20T02:41:04.484Z,21.90
2022-10-20T02:43:35.919Z,22.20
2022-10-20T02:46:07.645Z,23.50
2022-10-20T02:48:39.321Z,23.30
2022-10-20T02:51:10.879Z,22.80
2022-10-20T02:53:42.279Z,24.30
2022-10-20T02:56:13.737Z,26.00
2022-10-20T02:58:45.164Z,25.90
2022-10-20T03:01:16.688Z,27.00
2022-10-20T03:03:48.358Z,26.40
2022-10-20T03:06:19.826Z,27.80
2022-10-20T03:08:51.244Z,29.40
2022-10-20T03:11:22.858Z,25.40
2022-10-20T03:13:54.591Z,32.50
2022-10-20T03:16:26.130Z,28.30
2022-10-20T03:19:00.306Z,30.10
2022-10-20T03:21:35.712Z,30.20
2022-10-20T03:24:07.657Z,27.20
2022-10-20T03:26:39.340Z,24.20
2022-10-20T03:29:10.826Z,22.70
2022-10-20T03:31:42.330Z,26.20
2022-10-20T03:34:13.904Z,23.10
2022-10-20T03:36:45.317Z,24.50
2022-10-20T03:39:16.719Z,23.30
2022-10-20T03:41:48.140Z,27.80
2022-10-20T03:44:19.554Z,29.40
2022-10-20T03:46:50.957Z,33.60
2022-10-20T03:49:22.707Z,32.70
2022-10-20T03:51:54.245Z,31.20
2022-10-20T03:54:25.773Z,28.30
2022-10-20T03:56:57.227Z,27.30
2022-10-20T03:59:30.523Z,20.50
2022-10-20T04:02:02.690Z,22.90
2022-10-20T04:04:34.307Z,21.40
2022-10-20T04:07:05.755Z,23.90
2022-10-20T04:09:37.154Z,23.90
2022-10-20T04:12:08.762Z,25.50
2022-10-20T04:14:41.819Z,27.30
2022-10-20T04:17:13.235Z,37.10
2022-10-20T04:19:44.714Z,92.60
2022-10-20T04:22:16.647Z,18.60
2022-10-20T04:24:48.099Z,17.60
2022-10-20T04:27:19.531Z,22.60
2022-10-20T04:29:50.988Z,38.20
2022-10-20T04:32:22.433Z,50.50
2022-10-20T04:34:53.957Z,37.70
2022-10-20T04:37:25.595Z,60.80
2022-10-20T04:39:57.766Z,38.00
2022-10-20T04:42:29.287Z,17.30
2022-10-20T04:45:00.730Z,18.50
2022-10-20T04:47:38.251Z,16.00
2022-10-20T04:50:11.538Z,46.90
2022-10-20T04:52:43.067Z,26.20
2022-10-20T04:55:14.597Z,30.30
2022-10-20T04:57:46.077Z,16.80
2022-10-20T05:00:18.390Z,131.60
2022-10-20T05:02:49.882Z,37.70
2022-10-20T05:05:21.392Z,32.60
2022-10-20T05:07:52.806Z,18.50
2022-10-20T05:10:24.406Z,18.70
2022-10-20T05:12:55.908Z,16.60
2022-10-20T05:15:27.454Z,18.30
2022-10-20T05:17:59.061Z,13.80
2022-10-20T05:20:36.775Z,19.50
2022-10-20T05:23:13.398Z,21.50
2022-10-20T05:25:44.897Z,20.70
2022-10-20T05:28:16.415Z,21.70
2022-10-20T05:30:47.906Z,19.60
2022-10-20T05:33:19.394Z,23.00
2022-10-20T05:35:50.913Z,20.60
2022-10-20T05:38:22.333Z,20.70
2022-10-20T05:40:53.763Z,22.50
2022-10-20T05:43:25.209Z,20.10
2022-10-20T05:45:57.696Z,20.40
2022-10-20T05:48:29.162Z,22.30
2022-10-20T05:51:14.579Z,21.90
2022-10-20T05:53:48.026Z,24.60
2022-10-20T05:56:22.084Z,17.50
2022-10-20T05:58:54.319Z,27.50
2022-10-20T06:01:28.163Z,18.70
2022-10-20T06:04:01.328Z,18.30
2022-10-20T06:06:34.306Z,18.90
2022-10-20T06:09:09.344Z,19.90
2022-10-20T06:11:41.512Z,19.30
2022-10-20T06:14:13.016Z,15.80
2022-10-20T06:16:45.119Z,14.90
2022-10-20T06:19:16.543Z,23.90
2022-10-20T06:21:49.391Z,21.80
2022-10-20T06:24:22.699Z,24.70
2022-10-20T06:26:54.143Z,25.70
2022-10-20T06:29:25.802Z,26.90
2022-10-20T06:31:58.340Z,27.90
2022-10-20T06:34:29.862Z,24.80
2022-10-20T06:37:01.328Z,28.80
2022-10-20T06:39:32.790Z,29.50
2022-10-20T06:42:11.327Z,29.30
2022-10-20T06:44:43.695Z,30.20
2022-10-20T06:47:15.097Z,31.30
2022-10-20T06:49:46.536Z,26.80
2022-10-20T06:52:18.194Z,26.50
2022-10-20T06:54:49.618Z,23.80
2022-10-20T06:57:21.048Z,27.40
2022-10-20T06:59:52.472Z,27.90
2022-10-20T07:02:23.916Z,25.30
2022-10-20T07:04:55.442Z,28.60
2022-10-20T07:07:27.009Z,28.20
2022-10-20T07:09:58.607Z,31.70
2022-10-20T07:12:30.011Z,36.30
2022-10-20T07:15:01.518Z,35.30
2022-10-20T07:17:33.221Z,32.40
2022-10-20T07:20:05.311Z,30.50
2022-10-20T07:22:38.446Z,28.50
2022-10-20T07:25:11.439Z,26.40
2022-10-20T07:27:43.006Z,32.80
2022-10-20T07:30:15.704Z,26.10
2022-10-20T07:32:47.270Z,25.40
2022-10-20T07:35:18.956Z,24.00
2022-10-20T07:37:50.561Z,21.10
2022-10-20T07:40:22.158Z,20.30
2022-10-20T07:42:53.675Z,24.50
2022-10-20T07:45:25.093Z,30.50
2022-10-20T07:47:56.535Z,29.30
2022-10-20T07:50:28.536Z,16.00
2022-10-20T07:53:00.291Z,18.40
2022-10-20T07:55:38.585Z,17.70
2022-10-20T07:58:10.776Z,12.70
2022-10-20T08:00:42.219Z,11.20
2022-10-20T08:03:13.846Z,11.80
2022-10-20T08:05:45.279Z,9.00
2022-10-20T08:08:16.768Z,11.90
2022-10-20T08:10:48.250Z,9.60
2022-10-20T08:13:19.726Z,10.40
2022-10-20T08:15:52.858Z,14.00
2022-10-20T08:18:46.526Z,12.50
2022-10-20T08:21:19.455Z,8.00
2022-10-20T08:23:52.830Z,9.90
2022-10-20T08:26:27.044Z,7.80
2022-10-20T08:28:58.549Z,6.60
2022-10-20T08:31:29.992Z,7.70
2022-10-20T08:34:02.007Z,5.90
2022-10-20T08:36:33.626Z,6.60
2022-10-20T08:39:06.443Z,7.10
2022-10-20T08:42:06.331Z,9.20
2022-10-20T08:44:35.339Z,9.10
2022-10-20T08:47:15.953Z,8.30
2022-10-20T08:49:47.933Z,9.50
2022-10-20T08:52:22.959Z,7.60
2022-10-20T08:54:58.051Z,7.70
2022-10-20T08:57:35.916Z,6.70
2022-10-20T09:00:18.429Z,8.00
2022-10-20T09:02:51.534Z,7.30
2022-10-20T09:05:27.832Z,8.30
2022-10-20T09:07:59.824Z,8.80
2022-10-20T09:10:36.426Z,6.80
2022-10-20T09:13:17.555Z,5.80
2022-10-20T09:15:50.768Z,3.20
2022-10-20T09:18:23.464Z,4.70
2022-10-20T09:20:58.771Z,3.80
2022-10-20T09:23:41.223Z,5.40
2022-10-20T09:26:37.333Z,4.30
2022-10-20T09:29:15.035Z,3.90
2022-10-20T09:31:50.013Z,5.60
2022-10-20T09:34:27.597Z,4.50
2022-10-20T09:37:05.132Z,3.40
2022-10-20T09:39:44.236Z,4.50
2022-10-20T09:42:20.106Z,3.40
2022-10-20T09:44:56.079Z,3.80
2022-10-20T09:47:29.980Z,3.90
2022-10-20T09:50:05.764Z,4.00
2022-10-20T09:52:47.681Z,4.90
2022-10-20T09:55:29.124Z,6.70
2022-10-20T09:58:03.562Z,3.20
2022-10-20T10:00:38.324Z,4.60
2022-10-20T10:03:21.394Z,2.80
2022-10-20T10:05:56.446Z,2.70
2022-10-20T10:11:05.313Z,3.00
2022-10-20T10:13:43.726Z,2.70
2022-10-20T10:16:18.250Z,2.20
2022-10-20T10:18:59.807Z,3.50
2022-10-20T10:21:44.353Z,2.80
2022-10-20T10:24:38.518Z,3.40
2022-10-20T10:27:22.579Z,2.10
2022-10-20T10:29:54.695Z,2.10
2022-10-20T10:32:32.083Z,2.10
2022-10-20T10:35:18.189Z,1.40
2022-10-20T10:37:50.744Z,3.10
2022-10-20T10:40:33.843Z,1.80
2022-10-20T10:43:33.571Z,1.80
2022-10-20T10:46:09.567Z,2.20
2022-10-20T10:49:01.243Z,1.30
2022-10-20T10:51:45.909Z,2.40
2022-10-20T10:54:34.614Z,1.70
2022-10-20T10:57:14.175Z,2.50
2022-10-20T10:59:49.354Z,2.50
2022-10-20T11:02:54.540Z,1.20
2022-10-20T11:05:42.040Z,1.80
2022-10-20T11:08:25.956Z,2.00
2022-10-20T11:11:08.280Z,1.20
2022-10-20T11:13:53.189Z,1.30
2022-10-20T11:16:33.211Z,2.20
2022-10-20T11:19:37.183Z,1.70
2022-10-20T11:22:22.018Z,3.60
2022-10-20T11:25:02.581Z,1.30
2022-10-20T11:27:37.996Z,3.40
2022-10-20T11:30:19.703Z,3.30
2022-10-20T11:32:58.500Z,0.50
2022-10-20T11:35:39.865Z,1.10
2022-10-20T11:38:21.255Z,1.10
2022-10-20T11:40:58.824Z,0.90
2022-10-20T11:43:33.869Z,1.80
2022-10-20T11:46:10.658Z,0.80
2022-10-20T11:48:48.692Z,1.20
2022-10-20T11:51:45.989Z,1.80
2022-10-20T11:54:53.268Z,2.30
2022-10-20T11:57:38.375Z,1.50
2022-10-20T12:00:39.715Z,1.90
2022-10-20T12:03:47.078Z,1.10
2022-10-20T12:06:45.114Z,4.50
2022-10-20T12:09:36.422Z,1.50
2022-10-20T12:12:14.807Z,1.30
2022-10-20T12:14:50.949Z,1.10
2022-10-20T12:17:34.773Z,1.10
2022-10-20T12:20:41.185Z,1.90
2022-10-20T12:23:52.184Z,1.20
2022-10-20T12:27:00.666Z,1.80
2022-10-20T12:30:03.402Z,2.30
2022-10-20T12:32:56.042Z,1.50
2022-10-20T12:36:01.798Z,3.50
2022-10-20T12:38:33.647Z,1.90
2022-10-20T12:41:05.496Z,1.70
2022-10-20T12:43:53.062Z,2.20
2022-10-20T12:46:27.767Z,1.30
2022-10-20T12:49:03.875Z,1.80
2022-10-20T12:51:41.643Z,0.90
2022-10-20T12:54:23.835Z,2.10
2022-10-20T12:56:59.677Z,1.20
2022-10-20T12:59:47.834Z,1.00
2022-10-20T13:02:49.306Z,1.80
2022-10-20T13:05:48.777Z,3.50
2022-10-20T13:08:30.358Z,1.60
2022-10-20T13:11:33.189Z,1.70
2022-10-20T13:14:21.576Z,1.90
2022-10-20T13:17:01.822Z,2.10
2022-10-20T13:19:40.262Z,36.10
2022-10-20T13:22:37.880Z,4.30
2022-10-20T13:25:27.275Z,2.50
2022-10-20T13:28:08.480Z,3.50
2022-10-20T13:30:54.477Z,4.50
2022-10-20T13:33:58.463Z,3.60
2022-10-20T13:36:48.708Z,5.30
2022-10-20T13:39:29.416Z,5.40
2022-10-20T13:42:10.555Z,7.20
2022-10-20T13:44:54.879Z,6.00
2022-10-20T13:47:48.794Z,5.80
2022-10-20T13:50:24.376Z,3.70
2022-10-20T13:52:59.897Z,3.60
2022-10-20T13:55:52.479Z,4.80
2022-10-20T13:58:26.215Z,3.50
2022-10-20T14:01:05.591Z,4.60
2022-10-20T14:04:03.443Z,5.60
2022-10-20T14:06:38.087Z,4.90
2022-10-20T14:09:17.852Z,4.10
2022-10-20T14:11:54.102Z,2.20
2022-10-20T14:14:27.999Z,6.00
2022-10-20T14:17:02.224Z,5.20
2022-10-20T14:19:35.513Z,5.90
2022-10-20T14:22:21.365Z,3.90
2022-10-20T14:24:55.916Z,4.80
2022-10-20T14:27:31.284Z,4.80
2022-10-20T14:30:06.747Z,4.50
2022-10-20T14:32:44.307Z,3.40
2022-10-20T14:35:28.892Z,5.40
2022-10-20T14:38:04.165Z,4.70
2022-10-20T14:40:38.133Z,4.00
2022-10-20T14:43:17.921Z,3.90
2022-10-20T14:45:57.610Z,4.40
2022-10-20T14:48:34.936Z,4.70
2022-10-20T14:51:31.611Z,5.30
2022-10-20T14:54:28.113Z,3.90
2022-10-20T14:57:01.539Z,7.00
2022-10-20T14:59:36.236Z,4.60
2022-10-20T15:02:12.853Z,6.30
2022-10-20T15:04:46.448Z,7.80
2022-10-20T15:07:20.633Z,7.80
2022-10-20T15:09:54.539Z,7.10
2022-10-20T15:12:33.250Z,8.70
2022-10-20T15:15:09.253Z,6.30
2022-10-20T15:17:44.967Z,9.30
2022-10-20T15:20:37.445Z,8.20
2022-10-20T15:23:12.776Z,8.50
2022-10-20T15:25:53.199Z,10.10
2022-10-20T15:28:47.826Z,8.80
2022-10-20T15:31:24.200Z,7.70
2022-10-20T15:33:58.420Z,8.20
2022-10-20T17:55:07.509Z,27.60
2022-10-20T17:57:39.174Z,31.20
2022-10-20T18:00:19.137Z,29.30
2022-10-20T18:05:25.535Z,35.30
2022-10-20T18:07:57.061Z,32.60
2022-10-20T18:10:28.730Z,31.90
2022-10-20T18:13:01.511Z,34.40
2022-10-20T18:15:33.064Z,35.20
2022-10-20T18:18:04.709Z,31.20
2022-10-20T18:20:36.265Z,31.30
2022-10-20T18:23:08.053Z,29.00
2022-10-20T18:25:39.586Z,29.30
2022-10-20T18:28:11.029Z,30.40
2022-10-20T18:30:42.688Z,31.80
2022-10-20T18:33:14.354Z,24.80
2022-10-20T18:35:45.870Z,30.50
2022-10-20T18:38:17.547Z,29.70
2022-10-20T18:40:49.110Z,32.80
2022-10-20T18:43:20.539Z,30.90
2022-10-20T18:45:54.798Z,31.60
2022-10-20T18:48:26.258Z,35.30
2022-10-20T18:50:59.916Z,32.90
2022-10-20T18:56:03.166Z,35.40
2022-10-20T18:58:38.645Z,29.70
2022-10-20T19:01:12.411Z,30.70
2022-10-20T19:03:49.194Z,31.90
2022-10-20T19:06:23.076Z,28.70
2022-10-20T19:08:58.728Z,29.90
2022-10-20T19:11:33.006Z,25.90
2022-10-20T19:14:05.051Z,26.10
2022-10-20T19:16:38.258Z,27.80
2022-10-20T19:19:10.596Z,27.20
2022-10-20T19:21:42.336Z,27.80
2022-10-20T19:24:15.972Z,28.60
2022-10-20T19:29:38.573Z,29.80
2022-10-20T19:32:12.002Z,27.50
2022-10-20T19:34:43.461Z,25.70
2022-10-20T19:37:14.892Z,29.70
2022-10-20T19:39:46.417Z,27.90
2022-10-20T19:42:18.025Z,26.00
2022-10-20T19:44:49.556Z,29.80
2022-10-20T19:47:21.124Z,33.30
2022-10-20T19:49:52.619Z,31.20
2022-10-20T19:52:24.128Z,30.50
2022-10-20T19:54:55.594Z,30.50
2022-10-20T19:57:27.031Z,29.60
2022-10-20T19:59:58.428Z,42.30
2022-10-20T20:02:30.038Z,35.50
2022-10-20T20:05:01.488Z,48.20
2022-10-20T20:07:33.092Z,44.00
2022-10-20T20:10:05.227Z,43.60
2022-10-20T20:12:36.881Z,37.40
2022-10-20T20:15:09.341Z,36.70
2022-10-20T20:17:40.795Z,36.40
2022-10-20T20:20:12.425Z,34.90
2022-10-20T20:22:43.888Z,39.60
2022-10-20T20:25:15.604Z,33.30
2022-10-20T20:27:47.268Z,28.40
2022-10-20T20:30:18.756Z,29.90
2022-10-20T20:32:53.484Z,28.80
2022-10-20T20:35:25.846Z,29.80
2022-10-20T20:37:57.316Z,27.30
2022-10-20T20:40:28.804Z,29.20
2022-10-20T20:43:00.346Z,32.60
2022-10-20T20:45:31.771Z,27.60
2022-10-20T20:48:03.189Z,31.30
2022-10-20T20:50:34.697Z,29.90
2022-10-20T20:53:06.090Z,33.40
2022-10-20T20:55:37.713Z,27.40
2022-10-20T20:58:09.199Z,30.70
2022-10-20T21:00:40.617Z,28.90
2022-10-20T21:03:12.009Z,29.10
2022-10-20T21:05:43.935Z,30.30
2022-10-20T21:08:16.378Z,29.40
2022-10-20T21:10:47.899Z,32.40
2022-10-20T21:13:19.271Z,33.90
2022-10-20T21:15:50.703Z,25.70
2022-10-20T21:18:22.136Z,27.30
2022-10-20T21:20:53.599Z,30.90
2022-10-20T21:23:25.002Z,28.40
2022-10-20T21:25:56.484Z,29.80
2022-10-20T21:28:28.135Z,29.00
2022-10-20T21:31:00.994Z,32.10
2022-10-20T21:33:33.702Z,30.50
2022-10-20T21:36:07.242Z,31.80
2022-10-20T21:38:40.585Z,31.00
2022-10-20T21:41:14.614Z,33.40
2022-10-20T21:43:50.409Z,29.20
2022-10-20T21:46:25.547Z,33.20
2022-10-20T21:48:59.400Z,33.60
2022-10-20T21:51:33.940Z,31.60
2022-10-20T21:54:11.077Z,30.70
2022-10-20T21:56:46.844Z,31.90
2022-10-20T21:59:23.657Z,34.80
2022-10-20T22:01:58.171Z,30.40
2022-10-20T22:04:31.270Z,28.70
2022-10-20T22:07:02.804Z,25.80
2022-10-20T22:09:34.427Z,28.40
2022-10-20T22:12:06.754Z,27.80
2022-10-20T22:14:38.181Z,27.70
2022-10-20T22:17:09.582Z,28.60
2022-10-20T22:19:41.183Z,29.60
2022-10-20T22:22:12.589Z,32.40
2022-10-20T22:24:44.354Z,30.90
2022-10-20T22:27:25.290Z,35.00
2022-10-20T22:30:09.013Z,41.10
2022-10-20T22:32:40.733Z,44.70
2022-10-20T22:35:12.760Z,51.90
2022-10-20T22:37:44.181Z,51.80
2022-10-20T22:40:16.435Z,47.30
2022-10-20T22:42:47.818Z,49.60
2022-10-20T22:45:19.572Z,50.60
2022-10-20T22:47:51.002Z,49.00
2022-10-20T22:50:22.497Z,41.40
2022-10-20T22:52:53.932Z,41.50
2022-10-20T22:55:25.456Z,37.80
2022-10-20T23:00:33.376Z,43.70
2022-10-20T23:03:04.880Z,44.40
2022-10-20T23:05:36.522Z,41.70
2022-10-20T23:08:08.497Z,40.00
2022-10-20T23:10:39.942Z,41.60
2022-10-20T23:13:11.367Z,39.20
2022-10-20T23:15:50.941Z,40.10
2022-10-20T23:18:22.796Z,36.30
2022-10-20T23:20:57.341Z,32.20
2022-10-20T23:23:30.103Z,30.90
2022-10-20T23:26:04.524Z,32.80
2022-10-20T23:28:37.389Z,27.20
2022-10-20T23:31:11.169Z,28.00
2022-10-20T23:33:44.270Z,27.10
2022-10-20T23:36:16.810Z,26.80
2022-10-20T23:38:48.358Z,27.80
2022-10-20T23:41:21.288Z,25.00
2022-10-20T23:43:52.724Z,31.10
2022-10-20T23:46:24.780Z,30.20
2022-10-20T23:48:56.192Z,30.80
2022-10-20T23:51:28.065Z,39.60
2022-10-20T23:54:00.326Z,53.10
2022-10-20T23:56:31.795Z,49.90
2022-10-20T23:59:03.341Z,48.40
